createdAt,value
2022-10-28T00:00:16.179Z,7.00
2022-10-28T00:05:21.137Z,7.10
2022-10-28T00:10:24.804Z,7.47
2022-10-28T00:15:28.724Z,7.75
2022-10-28T00:20:33.887Z,6.93
2022-10-28T00:25:37.582Z,7.55
2022-10-28T00:30:41.288Z,8.30
2022-10-28T00:35:46.314Z,7.37
2022-10-28T00:40:49.967Z,8.60
2022-10-28T00:45:53.701Z,7.90
2022-10-28T00:50:59.286Z,8.23
2022-10-28T00:56:04.647Z,7.47
2022-10-28T01:01:08.409Z,6.95
2022-10-28T01:06:14.199Z,7.60
2022-10-28T01:11:46.554Z,6.03
2022-10-28T01:17:04.738Z,6.57
2022-10-28T01:22:21.542Z,6.10
2022-10-28T01:27:51.172Z,6.30
2022-10-28T01:33:05.391Z,6.78
2022-10-28T01:38:18.755Z,6.47
2022-10-28T01:43:26.998Z,6.10
2022-10-28T01:53:41.730Z,6.93
2022-10-28T01:58:46.196Z,6.03
2022-10-28T02:03:53.170Z,6.30
2022-10-28T02:09:23.122Z,7.50
2022-10-28T02:14:39.822Z,6.62
2022-10-28T02:19:52.385Z,6.30
2022-10-28T02:25:04.028Z,6.68
2022-10-28T02:30:12.428Z,6.50
2022-10-28T02:35:21.997Z,6.20
2022-10-28T02:40:29.805Z,6.28
2022-10-28T02:45:38.840Z,6.57
2022-10-28T02:50:49.391Z,5.82
2022-10-28T02:55:56.529Z,5.80
2022-10-28T03:01:00.276Z,5.78
2022-10-28T03:06:05.516Z,5.82
2022-10-28T03:11:09.168Z,5.62
2022-10-28T03:16:12.848Z,6.22
2022-10-28T03:21:17.857Z,6.25
2022-10-28T03:26:21.488Z,6.28
2022-10-28T03:31:25.367Z,5.65
2022-10-28T03:36:30.523Z,5.22
2022-10-28T03:41:34.200Z,6.18
2022-10-28T03:46:37.877Z,5.78
2022-10-28T03:51:42.872Z,6.18
2022-10-28T03:56:46.534Z,5.43
2022-10-28T04:01:50.348Z,5.12
2022-10-28T04:06:55.488Z,4.97
2022-10-28T04:11:59.250Z,5.15
2022-10-28T04:17:03.091Z,5.60
2022-10-28T04:22:09.106Z,4.80
2022-10-28T04:27:12.796Z,4.53
2022-10-28T04:32:16.459Z,4.80
2022-10-28T04:37:21.562Z,5.43
2022-10-28T04:42:25.520Z,5.22
2022-10-28T04:47:29.302Z,4.95
2022-10-28T04:52:34.370Z,5.25
2022-10-28T04:57:38.023Z,4.97
2022-10-28T05:02:45.971Z,5.10
2022-10-28T05:07:51.381Z,5.62
2022-10-28T05:12:55.300Z,4.80
2022-10-28T05:17:59.014Z,4.53
2022-10-28T05:23:04.071Z,4.35
2022-10-28T05:28:07.816Z,6.10
2022-10-28T05:33:12.281Z,4.65
2022-10-28T05:38:17.435Z,5.20
2022-10-28T05:43:21.086Z,5.50
2022-10-28T05:48:25.593Z,5.30
2022-10-28T05:53:30.646Z,5.12
2022-10-28T05:58:34.340Z,6.05
2022-10-28T06:03:38.024Z,6.12
2022-10-28T06:08:43.063Z,5.20
2022-10-28T06:13:45.184Z,5.37
2022-10-28T06:18:48.833Z,5.32
2022-10-28T06:23:53.799Z,5.25
2022-10-28T06:28:57.510Z,5.10
2022-10-28T06:34:01.207Z,6.93
2022-10-28T06:39:06.560Z,5.87
2022-10-28T06:44:10.255Z,5.55
2022-10-28T06:49:15.556Z,5.28
2022-10-28T06:54:21.681Z,5.75
2022-10-28T06:59:25.510Z,5.78
2022-10-28T07:04:29.172Z,6.00
2022-10-28T07:09:36.618Z,5.85
2022-10-28T07:14:40.555Z,5.70
2022-10-28T07:19:44.578Z,5.43
2022-10-28T07:24:52.704Z,5.82
2022-10-28T07:29:56.436Z,6.50
2022-10-28T07:35:00.223Z,6.10
2022-10-28T07:40:06.084Z,5.82
2022-10-28T07:45:10.157Z,5.05
2022-10-28T07:50:14.136Z,5.45
2022-10-28T07:55:21.857Z,4.85
2022-10-28T08:00:25.861Z,4.68
2022-10-28T08:05:29.593Z,5.72
2022-10-28T08:10:34.783Z,5.05
2022-10-28T08:15:38.490Z,6.68
2022-10-28T08:20:42.158Z,5.32
2022-10-28T08:25:51.907Z,5.28
2022-10-28T08:31:08.620Z,5.28
2022-10-28T08:36:14.446Z,4.33
2022-10-28T08:41:31.369Z,4.53
2022-10-28T08:46:54.757Z,5.40
2022-10-28T08:52:02.274Z,5.47
2022-10-28T08:57:17.888Z,4.40
2022-10-28T09:02:24.382Z,4.70
2022-10-28T09:07:28.125Z,4.80
2022-10-28T09:12:43.133Z,4.95
2022-10-28T09:17:53.922Z,4.30
2022-10-28T09:22:59.739Z,4.93
2022-10-28T09:28:25.487Z,4.40
2022-10-28T09:33:43.974Z,4.25
2022-10-28T09:38:48.913Z,4.65
2022-10-28T09:43:58.384Z,4.80
2022-10-28T09:49:06.445Z,4.72
2022-10-28T09:54:12.166Z,4.53
2022-10-28T09:59:17.647Z,4.45
2022-10-28T10:04:23.383Z,5.05
2022-10-28T10:09:29.714Z,4.50
2022-10-28T10:14:39.972Z,4.50
2022-10-28T10:20:01.044Z,4.30
2022-10-28T10:25:22.460Z,4.68
2022-10-28T10:30:31.493Z,3.87
2022-10-28T10:35:38.030Z,3.42
2022-10-28T10:40:49.611Z,3.85
2022-10-28T10:46:02.391Z,4.82
2022-10-28T10:51:08.160Z,4.25
2022-10-28T10:56:15.680Z,4.50
2022-10-28T11:01:22.908Z,3.20
2022-10-28T11:06:30.310Z,3.90
2022-10-28T11:11:35.602Z,4.57
2022-10-28T11:16:51.504Z,4.68
2022-10-28T11:22:13.630Z,3.78
2022-10-28T11:27:28.966Z,4.43
2022-10-28T11:33:01.957Z,3.70
2022-10-28T11:38:25.949Z,5.35
2022-10-28T11:43:37.796Z,4.47
2022-10-28T11:49:10.224Z,4.97
2022-10-28T11:54:26.088Z,4.78
2022-10-28T11:59:53.626Z,4.28
2022-10-28T12:05:06.670Z,4.80
2022-10-28T12:10:30.230Z,4.60
2022-10-28T12:15:41.770Z,4.55
2022-10-28T12:20:55.808Z,4.05
2022-10-28T12:26:02.371Z,4.37
2022-10-28T12:31:09.450Z,3.90
2022-10-28T12:36:25.095Z,4.03
2022-10-28T12:41:44.668Z,4.57
2022-10-28T12:46:57.161Z,4.15
2022-10-28T12:52:10.605Z,4.60
2022-10-28T12:57:17.130Z,4.05
2022-10-28T13:02:25.825Z,4.65
2022-10-28T13:07:58.520Z,4.28
2022-10-28T13:13:22.679Z,4.95
2022-10-28T13:18:59.271Z,4.20
2022-10-28T13:24:17.544Z,4.78
2022-10-28T13:29:24.460Z,4.85
2022-10-28T13:34:34.477Z,4.32
2022-10-28T13:39:45.457Z,4.32
2022-10-28T13:44:50.642Z,4.00
2022-10-28T13:50:26.081Z,4.62
2022-10-28T13:55:44.367Z,3.90
2022-10-28T14:00:50.583Z,3.53
2022-10-28T14:05:59.074Z,3.97
2022-10-28T14:11:07.331Z,4.00
2022-10-28T14:16:27.538Z,3.65
2022-10-28T14:21:42.350Z,4.10
2022-10-28T14:27:28.715Z,3.97
2022-10-28T14:32:43.958Z,3.87
2022-10-28T14:38:24.080Z,3.62
2022-10-28T14:43:44.346Z,3.95
2022-10-28T14:48:53.374Z,3.85
2022-10-28T14:54:00.578Z,3.97
2022-10-28T14:59:26.230Z,4.93
2022-10-28T15:04:31.004Z,3.83
2022-10-28T15:09:36.258Z,4.00
2022-10-28T15:14:42.739Z,3.42
2022-10-28T15:19:47.898Z,3.75
2022-10-28T15:25:00.187Z,4.30
2022-10-28T15:30:14.320Z,4.53
2022-10-28T15:35:40.390Z,4.12
2022-10-28T15:40:44.147Z,5.10
2022-10-28T15:45:49.333Z,4.43
2022-10-28T15:51:12.601Z,4.35
2022-10-28T15:56:21.757Z,4.45
2022-10-28T16:01:32.235Z,4.95
2022-10-28T16:06:37.866Z,4.00
2022-10-28T16:11:45.177Z,4.12
2022-10-28T16:16:50.457Z,4.97
2022-10-28T16:21:54.214Z,4.25
2022-10-28T16:27:15.910Z,5.25
2022-10-28T16:32:24.828Z,4.70
2022-10-28T16:37:30.430Z,4.32
2022-10-28T16:42:34.454Z,4.37
2022-10-28T16:47:39.486Z,4.28
2022-10-28T16:52:43.247Z,5.05
2022-10-28T16:57:46.954Z,4.93
2022-10-28T17:02:54.062Z,4.85
2022-10-28T17:07:58.846Z,4.72
2022-10-28T17:13:03.093Z,4.87
2022-10-28T17:18:08.714Z,5.80
2022-10-28T17:23:12.525Z,5.55
2022-10-28T17:28:16.198Z,5.22
2022-10-28T17:33:21.258Z,5.72
2022-10-28T17:38:24.947Z,6.50
2022-10-28T17:43:28.872Z,6.43
2022-10-28T17:48:34.400Z,6.50
2022-10-28T17:53:38.166Z,6.05
2022-10-28T17:58:41.796Z,5.82
2022-10-28T18:03:50.335Z,5.45
2022-10-28T18:08:54.289Z,5.78
2022-10-28T18:13:58.313Z,6.65
2022-10-28T18:19:06.340Z,6.00
2022-10-28T18:24:10.345Z,5.35
2022-10-28T18:29:14.171Z,5.68
2022-10-28T18:34:19.336Z,6.72
2022-10-28T18:39:23.243Z,7.22
2022-10-28T18:44:31.837Z,7.05
2022-10-28T18:49:36.901Z,6.70
2022-10-28T18:54:40.754Z,7.18
2022-10-28T19:00:05.084Z,6.60
2022-10-28T19:05:09.998Z,7.57
2022-10-28T19:10:13.774Z,7.85
2022-10-28T19:15:17.716Z,8.75
2022-10-28T19:20:23.837Z,8.13
2022-10-28T19:25:28.454Z,8.27
2022-10-28T19:30:32.155Z,9.00
2022-10-28T19:35:37.285Z,7.90
2022-10-28T19:40:41.009Z,8.27
2022-10-28T19:45:44.750Z,8.50
2022-10-28T19:50:51.157Z,9.35
2022-10-28T19:55:58.941Z,8.30
2022-10-28T20:01:04.339Z,7.32
2022-10-28T20:06:11.109Z,9.07
2022-10-28T20:11:18.921Z,7.25
2022-10-28T20:16:26.099Z,7.55
2022-10-28T20:21:33.278Z,7.35
2022-10-28T20:26:39.250Z,7.65
2022-10-28T20:31:42.974Z,7.37
2022-10-28T20:36:48.486Z,7.10
2022-10-28T20:41:52.173Z,8.27
2022-10-28T20:46:55.927Z,8.10
2022-10-28T20:52:00.971Z,8.60
2022-10-28T20:57:04.930Z,8.10
2022-10-28T21:02:10.346Z,7.45
2022-10-28T21:07:15.610Z,6.62
2022-10-28T21:12:19.384Z,7.50
2022-10-28T21:17:23.065Z,7.20
2022-10-28T21:22:28.085Z,7.97
2022-10-28T21:27:31.906Z,7.05
2022-10-28T21:32:37.190Z,6.90
2022-10-28T21:37:42.306Z,7.47
2022-10-28T21:42:49.824Z,7.32
2022-10-28T21:47:55.433Z,8.53
2022-10-28T21:53:03.923Z,7.18
2022-10-28T21:58:08.088Z,7.30
2022-10-28T22:03:12.781Z,7.12
2022-10-28T22:08:18.742Z,6.90
2022-10-28T22:13:22.358Z,9.27
2022-10-28T22:18:27.026Z,9.40
2022-10-28T22:23:32.165Z,8.38
2022-10-28T22:28:36.387Z,9.40
2022-10-28T22:33:40.801Z,9.25
2022-10-28T22:38:46.846Z,8.38
2022-10-28T22:43:52.175Z,9.98
2022-10-28T22:48:56.197Z,9.07
2022-10-28T22:54:01.202Z,8.93
2022-10-28T22:59:05.065Z,11.93
2022-10-28T23:04:11.186Z,16.42
2022-10-28T23:09:16.231Z,14.60
2022-10-28T23:14:19.909Z,11.48
2022-10-28T23:19:23.594Z,10.48
2022-10-28T23:24:28.628Z,10.65
2022-10-28T23:29:32.394Z,10.25
2022-10-28T23:34:36.043Z,10.20
2022-10-28T23:39:41.110Z,9.18
2022-10-28T23:44:44.836Z,10.55
2022-10-28T23:49:48.513Z,10.85
2022-10-28T23:54:53.494Z,9.32
2022-10-28T23:59:57.179Z,10.60
